Time;durP1;ratioP1;P1;durP2;ratioP2;P2;SDS_P1;SDS_P2;PMS_P1;PMS_P2;Temp;Humidity;BMP_temperature;BMP_pressure;BME280_temperature;BME280_humidity;BME280_pressure;Samples;Min_cycle;Max_cycle;Signal;HPM_P1;HPM_P2
2023/03/07 00:00:37;;;;;;;4.45;3.85;;;1.60;73.30;;;;;;5089550;28;20059;-77
2023/03/07 00:03:03;;;;;;;5.55;3.75;;;1.60;72.50;;;;;;5088669;28;20070;-75
2023/03/07 00:05:30;;;;;;;5.22;3.78;;;1.50;73.00;;;;;;5090267;28;20044;-78
2023/03/07 00:07:57;;;;;;;4.95;3.95;;;1.50;73.80;;;;;;5066857;28;20052;-76
2023/03/07 00:10:22;;;;;;;4.43;3.72;;;1.60;73.40;;;;;;5091058;28;20099;-75
2023/03/07 00:12:48;;;;;;;5.38;3.47;;;1.50;73.90;;;;;;5054624;28;20028;-77
2023/03/07 00:15:14;;;;;;;6.05;4.13;;;1.50;73.80;;;;;;5072096;28;20391;-80
2023/03/07 00:17:39;;;;;;;5.20;3.65;;;1.50;74.50;;;;;;5070464;28;20219;-77
2023/03/07 00:20:06;;;;;;;5.65;4.20;;;1.50;74.60;;;;;;5087471;28;20020;-77
2023/03/07 00:22:33;;;;;;;5.55;4.18;;;1.50;74.80;;;;;;5072289;28;20367;-78
2023/03/07 00:24:59;;;;;;;4.30;3.65;;;1.50;75.10;;;;;;5088471;28;20090;-80
2023/03/07 00:27:24;;;;;;;4.65;3.83;;;1.40;75.00;;;;;;5089508;28;20755;-75
2023/03/07 00:29:50;;;;;;;7.05;3.92;;;1.50;75.30;;;;;;5068817;28;20040;-76
2023/03/07 00:32:16;;;;;;;4.90;3.97;;;1.50;76.10;;;;;;5081163;28;20047;-77
2023/03/07 00:34:42;;;;;;;4.45;3.47;;;1.50;76.00;;;;;;5088726;28;20039;-77
2023/03/07 00:37:08;;;;;;;4.30;3.67;;;1.50;76.20;;;;;;5054909;28;20028;-79
2023/03/07 00:39:33;;;;;;;4.68;3.75;;;1.50;76.60;;;;;;5088130;28;20107;-79
2023/03/07 00:42:00;;;;;;;4.13;3.67;;;1.50;76.70;;;;;;5087283;28;20424;-77
2023/03/07 00:44:28;;;;;;;6.85;4.68;;;1.50;76.40;;;;;;5089687;28;20386;-76
2023/03/07 00:46:54;;;;;;;5.60;4.00;;;1.40;77.30;;;;;;5054636;28;20032;-75
2023/03/07 00:49:21;;;;;;;4.38;3.38;;;1.40;76.90;;;;;;5084438;28;20036;-78
2023/03/07 00:51:46;;;;;;;4.25;3.75;;;1.50;77.20;;;;;;5067242;28;20444;-77
2023/03/07 00:54:12;;;;;;;4.32;3.47;;;1.50;76.90;;;;;;5089218;28;20032;-75
2023/03/07 00:56:37;;;;;;;5.65;4.10;;;1.50;76.80;;;;;;5088959;28;20032;-79
2023/03/07 00:59:03;;;;;;;3.42;2.92;;;1.50;77.00;;;;;;5089391;28;20128;-76
2023/03/07 01:01:29;;;;;;;5.95;3.85;;;1.60;76.70;;;;;;5089453;28;20090;-75
2023/03/07 01:03:55;;;;;;;4.30;3.90;;;1.60;76.70;;;;;;5069975;28;20036;-79
2023/03/07 01:06:28;;;;;;;7.53;4.00;;;1.50;77.00;;;;;;5088990;28;20042;-78
2023/03/07 01:08:56;;;;;;;3.63;3.30;;;1.50;76.90;;;;;;5069842;28;20028;-80
2023/03/07 01:11:22;;;;;;;5.18;3.70;;;1.50;76.70;;;;;;5070803;28;20035;-78
2023/03/07 01:13:48;;;;;;;3.88;3.47;;;1.50;77.00;;;;;;5069928;28;20135;-77
2023/03/07 01:16:27;;;;;;;3.60;3.25;;;1.50;77.10;;;;;;5088684;28;20103;-76
2023/03/07 01:18:57;;;;;;;6.38;4.00;;;1.60;77.20;;;;;;5088709;28;20055;-76
2023/03/07 01:21:26;;;;;;;4.93;4.30;;;1.60;76.70;;;;;;5087054;28;20146;-79
2023/03/07 01:23:52;;;;;;;5.03;4.05;;;1.60;76.90;;;;;;5053985;28;20068;-77
2023/03/07 01:26:23;;;;;;;5.25;3.40;;;1.50;77.20;;;;;;5087354;28;20031;-77
2023/03/07 01:28:50;;;;;;;4.90;4.13;;;1.50;77.40;;;;;;5088439;28;20040;-77
2023/03/07 01:31:16;;;;;;;15.30;14.10;;;1.50;76.70;;;;;;5087841;28;20024;-78
2023/03/07 01:33:42;;;;;;;4.20;3.60;;;1.50;77.00;;;;;;5086778;28;20032;-76
2023/03/07 01:36:24;;;;;;;6.18;4.03;;;1.50;77.00;;;;;;5069781;28;20043;-78
2023/03/07 01:38:53;;;;;;;4.70;3.38;;;1.50;77.40;;;;;;5085989;28;20036;-76
2023/03/07 01:41:19;;;;;;;3.40;3.10;;;1.50;78.20;;;;;;5066123;28;20512;-76
2023/03/07 01:43:45;;;;;;;4.20;3.80;;;1.50;77.30;;;;;;5085704;28;20321;-76
2023/03/07 01:46:16;;;;;;;5.88;3.78;;;1.60;77.30;;;;;;5088532;28;20035;-76
2023/03/07 01:48:49;;;;;;;5.05;4.28;;;1.60;77.90;;;;;;5091129;28;20503;-77
2023/03/07 01:51:17;;;;;;;6.50;4.03;;;1.50;78.00;;;;;;5086202;28;20494;-77
2023/03/07 01:53:43;;;;;;;6.97;4.53;;;1.50;77.90;;;;;;5089372;28;20092;-77
2023/03/07 01:56:10;;;;;;;6.00;4.43;;;1.50;77.40;;;;;;5089139;28;20028;-78
2023/03/07 01:58:38;;;;;;;4.90;3.70;;;1.50;77.50;;;;;;5087733;28;20111;-79
2023/03/07 02:01:09;;;;;;;4.25;3.75;;;1.50;78.00;;;;;;5091793;28;20392;-76
2023/03/07 02:03:40;;;;;;;5.45;4.07;;;1.50;77.60;;;;;;5089194;28;20032;-78
2023/03/07 02:06:11;;;;;;;7.63;4.53;;;1.50;77.40;;;;;;5091484;28;20047;-79
2023/03/07 02:08:38;;;;;;;4.93;3.90;;;1.50;77.10;;;;;;5091462;28;20504;-77
2023/03/07 02:11:04;;;;;;;9.18;4.70;;;1.50;77.50;;;;;;5072152;28;20040;-77
2023/03/07 02:13:30;;;;;;;12.57;11.57;;;1.50;77.30;;;;;;5093411;28;20064;-76
2023/03/07 02:15:59;;;;;;;4.22;3.40;;;1.50;77.10;;;;;;5091643;28;20116;-75
2023/03/07 02:18:29;;;;;;;5.20;4.07;;;1.50;77.10;;;;;;5090975;28;20036;-75
2023/03/07 02:21:11;;;;;;;6.05;3.92;;;1.40;77.10;;;;;;5091659;28;20125;-77
2023/03/07 02:23:36;;;;;;;5.22;3.95;;;1.40;78.70;;;;;;5087840;28;20050;-75
2023/03/07 02:26:10;;;;;;;5.45;4.35;;;1.40;78.00;;;;;;5091069;28;20020;-76
2023/03/07 02:28:38;;;;;;;3.60;3.28;;;1.40;78.60;;;;;;5092775;28;20099;-76
2023/03/07 02:31:06;;;;;;;3.42;3.10;;;1.30;78.50;;;;;;5071030;28;20023;-76
2023/03/07 02:33:31;;;;;;;5.90;4.57;;;1.40;78.00;;;;;;5088716;28;20032;-79
2023/03/07 02:36:32;;;;;;;5.03;3.80;;;1.40;77.90;;;;;;5091304;28;20394;-79
2023/03/07 02:39:02;;;;;;;4.45;3.70;;;1.30;77.80;;;;;;5080187;28;20047;-77
2023/03/07 02:41:30;;;;;;;4.15;3.47;;;1.20;78.40;;;;;;5086774;28;20032;-78
2023/03/07 02:43:56;;;;;;;4.00;3.55;;;1.20;78.00;;;;;;5083944;28;20632;-78
2023/03/07 02:46:22;;;;;;;4.93;3.83;;;1.20;77.60;;;;;;5061885;28;20135;-77
2023/03/07 02:48:47;;;;;;;5.47;3.78;;;1.20;77.60;;;;;;5055792;28;20485;-78
2023/03/07 02:51:13;;;;;;;5.57;3.92;;;1.20;78.40;;;;;;5089438;28;20509;-76
2023/03/07 02:53:39;;;;;;;5.47;4.05;;;1.10;77.70;;;;;;5089802;28;20116;-76
2023/03/07 02:56:06;;;;;;;3.95;3.58;;;1.10;78.00;;;;;;5090418;28;20107;-79
2023/03/07 02:58:32;;;;;;;14.98;13.85;;;1.00;78.80;;;;;;5073398;28;20032;-77
2023/03/07 03:00:58;;;;;;;4.10;3.50;;;0.90;78.00;;;;;;5091459;28;20024;-77
2023/03/07 03:03:24;;;;;;;5.97;4.05;;;0.80;78.30;;;;;;5072404;28;20751;-76
2023/03/07 03:05:49;;;;;;;4.93;4.43;;;0.80;78.50;;;;;;5054934;28;20028;-76
2023/03/07 03:08:15;;;;;;;7.38;6.78;;;0.80;77.80;;;;;;5073514;28;20150;-75
2023/03/07 03:10:41;;;;;;;6.20;4.70;;;0.80;78.20;;;;;;5084901;28;20512;-77
2023/03/07 03:13:06;;;;;;;4.18;3.60;;;0.70;78.30;;;;;;5065466;28;20481;-76
2023/03/07 03:15:32;;;;;;;4.25;3.85;;;0.80;77.90;;;;;;5089603;28;20131;-76
2023/03/07 03:17:57;;;;;;;4.05;3.65;;;0.70;78.10;;;;;;5085559;28;20033;-77
2023/03/07 03:20:24;;;;;;;6.70;3.90;;;0.70;78.70;;;;;;5081999;28;20035;-75
2023/03/07 03:22:51;;;;;;;5.43;3.30;;;0.70;78.30;;;;;;5087525;28;20024;-76
2023/03/07 03:25:17;;;;;;;8.15;5.15;;;0.70;78.20;;;;;;5077567;28;20028;-76
2023/03/07 03:27:43;;;;;;;4.10;3.50;;;0.60;78.20;;;;;;5056630;28;20075;-75
2023/03/07 03:30:11;;;;;;;7.38;3.95;;;0.60;78.60;;;;;;5096064;28;20033;-75
2023/03/07 03:32:38;;;;;;;3.92;3.40;;;0.60;78.50;;;;;;5080769;28;20398;-77
2023/03/07 03:35:04;;;;;;;6.28;4.13;;;0.50;78.60;;;;;;5078105;28;20042;-75
2023/03/07 03:37:31;;;;;;;4.90;4.13;;;0.60;78.10;;;;;;5069588;28;20040;-76
2023/03/07 03:39:56;;;;;;;25.98;24.42;;;0.50;78.40;;;;;;5068979;28;20031;-76
2023/03/07 03:42:22;;;;;;;7.22;4.32;;;0.50;78.50;;;;;;5080945;28;20032;-76
2023/03/07 03:44:48;;;;;;;3.88;3.40;;;0.40;78.80;;;;;;5070179;28;20024;-76
2023/03/07 03:47:14;;;;;;;5.40;4.22;;;0.40;79.30;;;;;;5090353;28;20024;-77
2023/03/07 03:49:40;;;;;;;6.25;3.90;;;0.30;79.80;;;;;;5054449;28;20449;-76
2023/03/07 03:52:05;;;;;;;4.47;3.47;;;0.20;79.80;;;;;;5086896;28;20039;-76
2023/03/07 03:54:31;;;;;;;5.00;4.15;;;0.10;80.00;;;;;;5057640;28;20123;-77
2023/03/07 03:56:57;;;;;;;4.88;4.25;;;0.10;80.30;;;;;;5076529;28;20421;-75
2023/03/07 03:59:23;;;;;;;5.45;3.92;;;0.10;80.50;;;;;;5074228;28;20040;-75
2023/03/07 04:01:48;;;;;;;7.68;4.60;;;0.10;80.40;;;;;;5077072;28;20033;-77
2023/03/07 04:04:14;;;;;;;6.38;3.90;;;0.20;80.30;;;;;;5070098;28;20036;-75
2023/03/07 04:06:41;;;;;;;7.78;4.93;;;0.10;80.30;;;;;;5085618;28;20143;-76
2023/03/07 04:09:08;;;;;;;5.40;4.32;;;0.10;80.30;;;;;;5067327;28;20032;-76
2023/03/07 04:11:34;;;;;;;4.20;3.50;;;0.10;80.10;;;;;;5081255;28;20024;-76
2023/03/07 04:14:00;;;;;;;4.07;3.53;;;0.10;80.10;;;;;;5072233;28;20039;-76
2023/03/07 04:16:26;;;;;;;12.40;11.48;;;0.00;80.20;;;;;;5076315;28;20050;-76
2023/03/07 04:18:52;;;;;;;4.30;3.78;;;0.10;80.80;;;;;;5089156;28;20394;-76
2023/03/07 04:21:18;;;;;;;5.97;4.60;;;0.00;80.10;;;;;;5088640;28;20140;-76
2023/03/07 04:23:44;;;;;;;4.28;3.70;;;0.00;80.30;;;;;;5070837;28;20043;-76
2023/03/07 04:26:10;;;;;;;5.50;4.30;;;0.00;80.50;;;;;;5071310;28;20033;-76
2023/03/07 04:31:08;;;;;;;5.00;3.60;;;0.00;81.00;;;;;;5087646;28;20028;-75
2023/03/07 04:33:33;;;;;;;4.47;3.95;;;-0.10;81.10;;;;;;5089396;28;20078;-76
2023/03/07 04:35:59;;;;;;;6.07;4.13;;;-0.10;81.20;;;;;;5054183;28;20040;-75
2023/03/07 04:38:24;;;;;;;4.43;3.90;;;-0.20;81.40;;;;;;5069288;28;20040;-76
2023/03/07 04:40:50;;;;;;;7.32;5.28;;;-0.30;82.00;;;;;;5065408;28;20547;-75
2023/03/07 04:43:16;;;;;;;5.15;3.80;;;-0.40;82.00;;;;;;5070829;28;20028;-76
2023/03/07 04:45:41;;;;;;;5.93;4.30;;;-0.40;82.40;;;;;;5086518;28;20123;-75
2023/03/07 04:48:07;;;;;;;5.10;4.13;;;-0.40;82.40;;;;;;5063161;28;20757;-76
2023/03/07 04:50:33;;;;;;;5.40;4.45;;;-0.40;82.60;;;;;;5071032;28;20031;-76
2023/03/07 04:52:58;;;;;;;23.40;15.73;;;-0.30;82.80;;;;;;5087304;28;20070;-76
2023/03/07 04:55:24;;;;;;;5.75;3.88;;;-0.30;82.40;;;;;;5071390;28;20068;-76
2023/03/07 04:57:50;;;;;;;8.00;4.18;;;-0.40;82.80;;;;;;5070876;28;20629;-75
2023/03/07 05:00:17;;;;;;;4.45;3.53;;;-0.40;82.40;;;;;;5089059;28;20486;-75
2023/03/07 05:02:43;;;;;;;5.35;4.85;;;-0.40;82.90;;;;;;5087558;28;20039;-76
2023/03/07 05:05:09;;;;;;;3.65;3.33;;;-0.40;83.20;;;;;;5086886;28;20024;-76
2023/03/07 05:07:35;;;;;;;5.03;4.22;;;-0.50;83.50;;;;;;5071150;28;20036;-77
2023/03/07 05:10:00;;;;;;;4.45;3.50;;;-0.50;83.50;;;;;;5088486;28;20031;-75
2023/03/07 05:12:26;;;;;;;4.60;4.10;;;-0.50;83.50;;;;;;5087375;28;20036;-77
2023/03/07 05:14:51;;;;;;;6.25;4.60;;;-0.70;84.00;;;;;;5050090;28;20043;-75
2023/03/07 05:17:18;;;;;;;29.77;27.42;;;-0.70;84.80;;;;;;5085688;28;20110;-76
2023/03/07 05:19:44;;;;;;;4.13;3.63;;;-0.60;85.20;;;;;;5070766;28;20499;-79
2023/03/07 05:22:10;;;;;;;5.13;3.95;;;-0.50;84.60;;;;;;5084687;28;20064;-76
2023/03/07 05:24:36;;;;;;;4.25;3.90;;;-0.40;83.80;;;;;;5102917;28;20050;-77
2023/03/07 05:27:02;;;;;;;5.63;4.28;;;-0.40;84.10;;;;;;5105793;28;20047;-76
2023/03/07 05:29:28;;;;;;;5.38;4.47;;;-0.30;83.50;;;;;;5105998;28;20557;-78
2023/03/07 05:31:54;;;;;;;3.67;3.35;;;-0.30;83.20;;;;;;5074994;28;20028;-81
2023/03/07 05:34:19;;;;;;;5.43;4.53;;;-0.20;82.90;;;;;;5104146;28;20040;-78
2023/03/07 05:36:46;;;;;;;4.22;3.83;;;-0.10;82.80;;;;;;5089514;28;20106;-78
2023/03/07 05:39:14;;;;;;;6.55;5.97;;;-0.10;83.20;;;;;;5104485;28;20031;-77
2023/03/07 05:41:40;;;;;;;5.35;4.10;;;-0.10;82.50;;;;;;5091063;28;20051;-77
2023/03/07 05:44:06;;;;;;;6.80;4.20;;;0.00;82.60;;;;;;5071984;28;20058;-78
2023/03/07 05:46:32;;;;;;;5.05;4.30;;;0.00;82.50;;;;;;5088543;28;20439;-78
2023/03/07 05:48:58;;;;;;;7.68;7.07;;;0.00;82.50;;;;;;5107389;28;20099;-78
2023/03/07 05:51:23;;;;;;;6.28;4.57;;;0.10;82.20;;;;;;5072970;28;20114;-77
2023/03/07 05:53:49;;;;;;;5.45;4.13;;;0.10;82.30;;;;;;5089284;28;20058;-78
2023/03/07 05:56:15;;;;;;;4.53;3.85;;;0.20;82.70;;;;;;5109006;28;20371;-76
2023/03/07 05:58:40;;;;;;;9.20;4.40;;;0.10;82.30;;;;;;5070135;28;20043;-80
2023/03/07 06:01:06;;;;;;;5.57;3.90;;;0.00;83.00;;;;;;5072586;28;20028;-77
2023/03/07 06:03:31;;;;;;;6.30;4.75;;;0.00;83.00;;;;;;5072516;28;20430;-76
2023/03/07 06:05:57;;;;;;;7.78;5.20;;;0.00;83.10;;;;;;5089213;28;20069;-77
2023/03/07 06:08:24;;;;;;;6.70;6.00;;;0.00;83.30;;;;;;5089130;28;20123;-77
2023/03/07 06:10:53;;;;;;;11.68;4.50;;;0.00;83.40;;;;;;5086366;28;20028;-76
2023/03/07 06:13:22;;;;;;;4.90;4.10;;;-0.10;83.60;;;;;;5108368;28;20063;-77
2023/03/07 06:15:49;;;;;;;65.63;41.58;;;-0.20;84.10;;;;;;5066461;28;20028;-77
2023/03/07 06:18:15;;;;;;;3.95;3.65;;;-0.10;83.80;;;;;;5106851;28;20023;-77
2023/03/07 06:20:41;;;;;;;5.90;4.60;;;-0.10;83.70;;;;;;5088114;28;20028;-77
2023/03/07 06:23:06;;;;;;;4.60;4.03;;;-0.20;83.30;;;;;;5082297;28;20044;-76
2023/03/07 06:25:32;;;;;;;7.85;4.60;;;-0.30;83.90;;;;;;5071537;28;20481;-76
2023/03/07 06:28:00;;;;;;;4.75;4.25;;;-0.30;83.80;;;;;;5083961;28;20032;-76
2023/03/07 06:30:27;;;;;;;10.15;7.25;;;-0.30;84.10;;;;;;5066026;28;20033;-77
2023/03/07 06:32:52;;;;;;;5.55;4.90;;;-0.30;84.20;;;;;;5089350;28;20024;-77
2023/03/07 06:35:18;;;;;;;4.82;3.92;;;-0.40;84.40;;;;;;5088024;28;20090;-76
2023/03/07 06:37:44;;;;;;;5.28;4.57;;;-0.40;84.60;;;;;;5063885;28;20371;-76
2023/03/07 06:40:10;;;;;;;5.20;4.70;;;-0.40;84.50;;;;;;5070790;28;20051;-76
2023/03/07 06:42:37;;;;;;;5.93;4.70;;;-0.50;85.00;;;;;;5072224;28;20027;-76
2023/03/07 06:45:03;;;;;;;4.75;4.15;;;-0.50;85.30;;;;;;5097034;28;20538;-76
2023/03/07 06:47:28;;;;;;;9.80;5.45;;;-0.50;85.70;;;;;;5093070;28;20393;-75
2023/03/07 06:49:54;;;;;;;4.25;3.88;;;-0.40;85.80;;;;;;5074444;28;20058;-75
2023/03/07 06:52:21;;;;;;;7.30;6.70;;;-0.40;85.30;;;;;;5069033;28;20272;-73
2023/03/07 06:54:46;;;;;;;4.80;4.35;;;-0.40;85.20;;;;;;5089265;28;20036;-76
2023/03/07 06:57:12;;;;;;;10.90;10.02;;;-0.30;84.90;;;;;;5089005;28;20039;-75
2023/03/07 06:59:38;;;;;;;8.18;4.30;;;-0.10;84.50;;;;;;5091712;28;20103;-76
2023/03/07 07:02:04;;;;;;;4.53;3.83;;;-0.10;84.70;;;;;;5075971;28;20031;-76
2023/03/07 07:04:31;;;;;;;6.57;6.13;;;0.00;84.10;;;;;;5092534;28;20036;-76
2023/03/07 07:06:56;;;;;;;5.28;4.40;;;0.10;83.20;;;;;;5093728;28;20540;-74
2023/03/07 07:09:22;;;;;;;9.32;5.38;;;0.10;83.20;;;;;;5091538;28;20068;-73
2023/03/07 07:11:48;;;;;;;3.35;3.13;;;0.20;82.90;;;;;;5072544;28;20032;-75
2023/03/07 07:14:13;;;;;;;6.88;5.05;;;0.20;82.90;;;;;;5093657;28;20027;-74
2023/03/07 07:16:39;;;;;;;6.72;6.03;;;0.30;82.80;;;;;;5094912;28;20398;-73
2023/03/07 07:19:05;;;;;;;7.10;5.35;;;0.40;82.30;;;;;;5075482;28;20058;-73
2023/03/07 07:21:30;;;;;;;5.63;4.63;;;0.40;82.10;;;;;;5088659;28;20573;-74
2023/03/07 07:23:57;;;;;;;4.70;4.22;;;0.50;82.30;;;;;;5101865;28;20131;-74
2023/03/07 07:26:23;;;;;;;6.53;5.75;;;0.60;82.30;;;;;;5111703;28;20057;-73
2023/03/07 07:28:49;;;;;;;4.50;4.07;;;0.60;81.70;;;;;;5091473;28;20429;-74
2023/03/07 07:31:15;;;;;;;4.95;4.45;;;0.70;81.30;;;;;;5076131;28;20028;-75
2023/03/07 07:33:41;;;;;;;4.75;4.35;;;0.70;80.80;;;;;;5112738;27;20036;-75
2023/03/07 07:36:07;;;;;;;8.52;7.85;;;0.80;81.00;;;;;;5093139;28;20032;-73
2023/03/07 07:38:32;;;;;;;6.45;5.38;;;1.00;80.40;;;;;;5092443;27;20054;-75
2023/03/07 07:40:58;;;;;;;4.88;4.38;;;1.10;80.00;;;;;;5111415;28;20027;-75
2023/03/07 07:43:24;;;;;;;4.85;4.28;;;1.20;79.90;;;;;;5111413;28;20020;-74
2023/03/07 07:45:50;;;;;;;5.22;4.35;;;1.30;79.50;;;;;;5092787;28;20076;-74
2023/03/07 07:48:15;;;;;;;6.88;6.28;;;1.50;80.20;;;;;;5111472;28;20493;-74
2023/03/07 07:50:41;;;;;;;9.07;8.32;;;1.60;78.90;;;;;;5075432;28;20039;-76
2023/03/07 07:53:07;;;;;;;5.07;4.50;;;1.60;78.20;;;;;;5110506;27;20035;-75
2023/03/07 07:55:32;;;;;;;5.82;5.30;;;1.70;78.30;;;;;;5090459;28;20036;-75
2023/03/07 07:57:58;;;;;;;7.53;6.82;;;1.80;76.90;;;;;;5092091;28;20040;-77
2023/03/07 08:00:24;;;;;;;6.07;4.47;;;1.70;77.30;;;;;;5091981;28;20023;-75
2023/03/07 08:02:50;;;;;;;6.32;5.63;;;1.90;77.90;;;;;;5092269;28;20027;-75
2023/03/07 08:05:18;;;;;;;4.18;3.75;;;2.00;77.00;;;;;;5110432;28;20022;-86
2023/03/07 08:07:44;;;;;;;114.28;38.40;;;2.00;76.40;;;;;;5110381;28;20047;-74
2023/03/07 08:10:14;;;;;;;20.30;18.65;;;2.10;75.60;;;;;;5091816;28;20139;-74
2023/03/07 08:12:44;;;;;;;7.30;4.75;;;2.20;75.80;;;;;;5111360;28;20035;-75
2023/03/07 08:15:10;;;;;;;4.00;3.33;;;2.40;75.10;;;;;;5109197;28;20049;-76
2023/03/07 08:17:36;;;;;;;9.40;4.45;;;2.50;74.60;;;;;;5091468;28;20036;-76
2023/03/07 08:20:08;;;;;;;5.65;3.78;;;2.80;74.10;;;;;;5110592;28;20513;-74
2023/03/07 08:22:35;;;;;;;5.57;3.70;;;2.70;73.00;;;;;;5110840;28;20032;-76
2023/03/07 08:25:01;;;;;;;7.13;4.00;;;2.70;73.20;;;;;;5110645;28;20081;-76
2023/03/07 08:27:27;;;;;;;4.35;3.72;;;2.80;72.90;;;;;;5083677;28;20072;-76
2023/03/07 08:29:53;;;;;;;5.30;4.25;;;2.80;71.80;;;;;;5105595;28;20434;-76
2023/03/07 08:32:18;;;;;;;10.85;10.18;;;2.70;71.90;;;;;;5086338;28;20161;-74
2023/03/07 08:34:44;;;;;;;9.77;5.80;;;2.70;71.70;;;;;;5109701;28;20032;-76
2023/03/07 08:37:10;;;;;;;82.85;59.47;;;2.70;70.90;;;;;;5071603;28;20062;-75
2023/03/07 08:39:35;;;;;;;123.75;95.70;;;2.70;70.50;;;;;;5085984;28;20023;-76
2023/03/07 08:42:01;;;;;;;3.55;3.25;;;2.80;69.30;;;;;;5108526;28;21032;-79
2023/03/07 08:44:27;;;;;;;4.65;3.38;;;2.80;70.10;;;;;;5090560;28;20034;-76
2023/03/07 08:46:53;;;;;;;4.10;3.80;;;2.90;69.10;;;;;;5110588;28;20054;-74
2023/03/07 08:49:18;;;;;;;4.57;4.00;;;3.10;69.40;;;;;;5110382;28;20073;-75
2023/03/07 08:51:46;;;;;;;33.38;30.92;;;3.20;69.00;;;;;;5110262;28;20111;-76
2023/03/07 08:54:12;;;;;;;5.50;3.63;;;3.10;67.70;;;;;;5091483;28;20032;-75
2023/03/07 08:56:38;;;;;;;8.30;3.72;;;3.40;68.40;;;;;;5108048;27;20046;-73
2023/03/07 08:59:03;;;;;;;5.68;5.18;;;3.50;68.00;;;;;;5106974;28;20051;-76
2023/03/07 09:01:29;;;;;;;3.50;3.30;;;3.40;67.00;;;;;;5073837;28;20039;-78
2023/03/07 09:03:55;;;;;;;4.20;3.83;;;3.20;67.40;;;;;;5109830;28;20100;-79
2023/03/07 09:06:20;;;;;;;4.80;4.05;;;3.30;67.70;;;;;;5109350;28;20120;-75
2023/03/07 09:08:47;;;;;;;13.77;12.27;;;3.20;67.40;;;;;;5091228;28;20050;-76
2023/03/07 09:11:14;;;;;;;6.68;6.10;;;3.20;67.60;;;;;;5109543;28;20024;-76
2023/03/07 09:13:41;;;;;;;3.78;3.28;;;3.20;67.60;;;;;;5109647;28;20513;-78
2023/03/07 09:16:07;;;;;;;17.20;15.98;;;3.30;67.40;;;;;;5109219;28;20042;-78
2023/03/07 09:18:33;;;;;;;4.05;3.70;;;3.30;66.20;;;;;;5108266;28;20107;-77
2023/03/07 09:21:00;;;;;;;55.35;29.80;;;3.30;66.30;;;;;;5101281;28;20041;-78
2023/03/07 09:23:25;;;;;;;4.18;3.20;;;3.30;66.80;;;;;;5090679;28;20054;-79
2023/03/07 09:25:51;;;;;;;8.55;7.85;;;3.40;66.60;;;;;;5091729;28;20031;-81
2023/03/07 09:28:17;;;;;;;5.75;4.10;;;3.70;66.40;;;;;;5084971;28;20047;-76
2023/03/07 09:30:42;;;;;;;3.78;3.30;;;3.70;65.30;;;;;;5090751;28;20185;-78
2023/03/07 09:33:08;;;;;;;4.95;3.40;;;3.80;65.20;;;;;;5109015;28;20147;-79
2023/03/07 09:35:34;;;;;;;4.40;3.22;;;3.70;64.40;;;;;;5090753;28;20081;-82
2023/03/07 09:37:59;;;;;;;6.80;6.40;;;3.60;64.90;;;;;;5089873;28;20869;-78
2023/03/07 09:40:26;;;;;;;7.07;6.63;;;3.30;64.90;;;;;;5108780;28;20527;-75
2023/03/07 09:42:55;;;;;;;8.93;4.15;;;3.20;64.80;;;;;;5109437;28;20023;-77
2023/03/07 09:45:52;;;;;;;4.88;3.53;;;3.50;66.00;;;;;;5107882;28;20027;-75
2023/03/07 09:48:36;;;;;;;4.18;3.38;;;3.80;65.80;;;;;;5090380;28;20420;-77
2023/03/07 09:51:30;;;;;;;3.33;3.03;;;4.10;64.90;;;;;;5107802;28;20032;-74
2023/03/07 09:54:00;;;;;;;5.35;4.65;;;4.00;63.70;;;;;;5079905;28;20113;-81
2023/03/07 09:56:53;;;;;;;4.85;4.13;;;4.10;63.90;;;;;;5090405;28;20032;-77
2023/03/07 09:59:27;;;;;;;3.17;2.80;;;4.00;63.40;;;;;;5107862;28;20478;-76
2023/03/07 10:02:19;;;;;;;5.10;3.22;;;4.50;64.00;;;;;;5107176;28;20027;-76
2023/03/07 10:04:58;;;;;;;5.25;4.32;;;4.40;61.70;;;;;;5090687;28;20801;-75
2023/03/07 10:07:26;;;;;;;4.20;3.63;;;4.10;62.40;;;;;;5108908;28;20053;-75
2023/03/07 10:10:03;;;;;;;3.38;3.08;;;4.40;62.50;;;;;;5090507;28;20481;-75
2023/03/07 10:12:38;;;;;;;3.30;2.95;;;4.50;62.10;;;;;;5108427;28;20122;-75
2023/03/07 10:15:26;;;;;;;3.50;3.20;;;4.30;60.80;;;;;;5113204;28;20039;-75
2023/03/07 10:18:10;;;;;;;3.83;3.45;;;4.30;62.00;;;;;;5111922;28;20016;-74
2023/03/07 10:21:05;;;;;;;3.75;3.42;;;4.70;61.50;;;;;;5111291;28;20031;-78
2023/03/07 10:23:47;;;;;;;6.07;3.35;;;4.50;60.50;;;;;;5080843;28;20067;-75
2023/03/07 10:26:22;;;;;;;9.13;8.15;;;4.70;62.20;;;;;;5092409;28;20026;-75
2023/03/07 10:28:48;;;;;;;4.95;3.65;;;4.40;61.00;;;;;;5113947;27;20415;-75
2023/03/07 10:31:15;;;;;;;5.05;3.53;;;4.90;62.20;;;;;;5112508;27;20043;-75
2023/03/07 10:33:44;;;;;;;3.88;3.45;;;5.20;60.20;;;;;;5093474;28;20113;-75
2023/03/07 10:36:42;;;;;;;6.82;3.53;;;5.40;59.90;;;;;;5112504;28;20110;-75
2023/03/07 10:39:39;;;;;;;4.15;3.72;;;4.80;60.00;;;;;;5112081;28;20020;-77
2023/03/07 10:42:12;;;;;;;3.15;2.88;;;4.50;59.80;;;;;;5091009;28;20024;-76
2023/03/07 10:44:38;;;;;;;4.50;3.63;;;4.60;60.50;;;;;;5091853;28;20043;-77
2023/03/07 10:47:04;;;;;;;4.22;3.83;;;4.60;59.80;;;;;;5111794;28;20027;-75
2023/03/07 10:49:33;;;;;;;5.32;3.78;;;5.00;60.70;;;;;;5112866;28;20054;-78
2023/03/07 10:52:36;;;;;;;4.15;3.75;;;5.50;60.20;;;;;;5109331;28;20049;-76
2023/03/07 10:55:33;;;;;;;8.05;3.72;;;5.40;57.20;;;;;;5092086;28;20160;-75
2023/03/07 10:58:13;;;;;;;3.97;3.58;;;5.40;57.30;;;;;;5093396;28;20118;-76
2023/03/07 11:00:39;;;;;;;3.30;3.00;;;5.30;56.70;;;;;;5111078;28;20108;-76
2023/03/07 11:03:26;;;;;;;5.93;3.88;;;5.20;57.30;;;;;;5111902;28;20485;-76
2023/03/07 11:05:52;;;;;;;5.28;3.88;;;5.20;57.50;;;;;;5093411;28;20039;-76
2023/03/07 11:08:26;;;;;;;4.28;3.72;;;5.60;57.90;;;;;;5107608;28;20353;-78
2023/03/07 11:10:52;;;;;;;4.38;3.83;;;5.60;57.00;;;;;;5110112;28;20497;-79
2023/03/07 11:13:21;;;;;;;7.88;5.72;;;5.40;56.70;;;;;;5075790;28;20054;-76
2023/03/07 11:15:47;;;;;;;14.50;13.40;;;4.90;56.60;;;;;;5111417;28;20035;-80
2023/03/07 11:18:52;;;;;;;4.47;4.05;;;4.90;58.90;;;;;;5075653;28;20512;-82
2023/03/07 11:21:30;;;;;;;5.18;4.68;;;5.00;58.80;;;;;;5031968;28;20028;-76
2023/03/07 11:24:21;;;;;;;4.82;4.25;;;5.10;57.60;;;;;;5068245;28;20037;-78
2023/03/07 11:26:53;;;;;;;14.30;12.93;;;5.30;57.90;;;;;;5089874;28;20394;-78
2023/03/07 11:29:19;;;;;;;3.70;3.30;;;5.00;56.50;;;;;;5110632;28;20027;-76
2023/03/07 11:32:05;;;;;;;3.60;3.28;;;5.00;56.10;;;;;;5111433;28;20374;-77
2023/03/07 11:34:58;;;;;;;4.70;4.10;;;5.20;57.20;;;;;;5103625;28;20027;-79
2023/03/07 11:37:45;;;;;;;4.55;3.58;;;5.20;56.90;;;;;;5110950;28;20040;-76
2023/03/07 11:40:17;;;;;;;4.43;4.03;;;5.20;56.70;;;;;;5110493;28;20038;-75
2023/03/07 11:42:59;;;;;;;3.70;3.35;;;5.70;56.80;;;;;;5104515;28;20026;-78
2023/03/07 11:45:34;;;;;;;5.57;4.55;;;6.20;54.10;;;;;;5103870;28;20575;-80
2023/03/07 11:48:25;;;;;;;4.22;3.85;;;6.90;54.00;;;;;;5093197;28;20038;-75
2023/03/07 11:50:56;;;;;;;95.95;28.38;;;7.70;53.40;;;;;;5106088;28;20036;-74
2023/03/07 11:53:40;;;;;;;;;;;7.40;51.00;;;;;;5107898;28;20115;-74
2023/03/07 11:56:12;;;;;;;4.20;3.80;;;7.50;48.90;;;;;;5110854;28;20388;-75
2023/03/07 11:59:09;;;;;;;6.78;4.15;;;8.60;47.10;;;;;;5090258;28;20496;-74
2023/03/07 12:02:06;;;;;;;4.95;3.55;;;9.10;46.90;;;;;;5089962;27;20062;-75
2023/03/07 12:05:14;;;;;;;5.07;4.18;;;8.10;47.30;;;;;;5106851;28;20401;-76
2023/03/07 12:08:10;;;;;;;4.40;4.00;;;8.20;47.70;;;;;;5109008;28;20484;-75
2023/03/07 12:10:51;;;;;;;4.90;4.40;;;9.10;48.10;;;;;;5109199;28;20030;-75
2023/03/07 12:13:25;;;;;;;4.70;4.15;;;8.00;45.60;;;;;;5109793;28;20388;-75
2023/03/07 12:16:18;;;;;;;5.22;4.72;;;7.70;49.00;;;;;;5109639;28;20123;-75
2023/03/07 12:19:04;;;;;;;3.95;3.58;;;7.90;52.10;;;;;;5110600;28;20060;-77
2023/03/07 12:21:44;;;;;;;4.35;3.95;;;9.10;48.50;;;;;;5109800;28;20431;-75
2023/03/07 12:24:30;;;;;;;6.20;4.30;;;8.80;47.10;;;;;;5074923;28;20112;-74
2023/03/07 12:26:58;;;;;;;10.98;4.55;;;9.20;45.70;;;;;;5084705;28;20036;-74
2023/03/07 12:29:32;;;;;;;5.22;4.65;;;9.40;48.30;;;;;;5081189;28;20028;-73
2023/03/07 12:32:03;;;;;;;4.93;4.28;;;10.10;45.50;;;;;;5080993;28;20024;-74
2023/03/07 12:34:37;;;;;;;4.97;4.38;;;9.80;43.80;;;;;;5078691;28;20024;-75
2023/03/07 12:37:12;;;;;;;5.35;4.18;;;9.30;43.00;;;;;;5089095;28;20040;-74
2023/03/07 12:39:54;;;;;;;5.18;4.45;;;8.80;44.30;;;;;;5094783;28;20032;-74
2023/03/07 12:42:36;;;;;;;5.40;4.05;;;9.40;45.00;;;;;;5081543;28;20028;-74
2023/03/07 12:45:21;;;;;;;4.97;4.20;;;9.00;43.90;;;;;;5069623;28;20027;-74
2023/03/07 12:47:52;;;;;;;5.57;4.35;;;9.40;44.30;;;;;;5087595;28;20027;-74
2023/03/07 12:50:27;;;;;;;5.30;4.68;;;8.20;44.60;;;;;;5087092;28;20497;-75
2023/03/07 12:52:59;;;;;;;6.40;4.40;;;8.50;48.60;;;;;;5091074;28;20036;-74
2023/03/07 12:55:27;;;;;;;6.60;4.85;;;7.80;47.40;;;;;;5088290;28;20127;-77
2023/03/07 12:58:02;;;;;;;5.70;4.60;;;7.70;49.20;;;;;;5090493;28;20394;-75
2023/03/07 13:00:30;;;;;;;7.15;4.57;;;7.80;48.70;;;;;;5076270;28;20024;-79
2023/03/07 13:03:00;;;;;;;5.70;4.47;;;7.80;49.20;;;;;;5073664;28;20021;-77
2023/03/07 13:05:27;;;;;;;8.57;4.70;;;7.60;49.20;;;;;;5056278;28;20490;-75
2023/03/07 13:07:54;;;;;;;7.45;4.10;;;8.70;47.80;;;;;;5083983;28;20509;-75
2023/03/07 13:10:22;;;;;;;6.85;4.40;;;9.50;45.00;;;;;;5080784;28;20032;-75